TimeMDT,TemperatureF,Dew PointF,Humidity,Sea Level PressureIn,VisibilityMPH,Wind Direction,Wind SpeedMPH,Gust SpeedMPH,PrecipitationIn,Events,Conditions,WindDirDegrees,DateUTC
12:55 AM,23.4,14.5,69,30.46,10.0,North,6.9,-,N/A,,Scattered Clouds,350,2013-04-23 06:55:00
1:55 AM,20.8,13.8,74,30.46,10.0,North,5.8,-,N/A,,Overcast,360,2013-04-23 07:55:00
2:55 AM,15.3,9.7,79,30.46,10.0,Calm,Calm,-,N/A,,Partly Cloudy,0,2013-04-23 08:55:00
3:55 AM,12.9,7.3,78,30.44,10.0,WNW,4.6,-,N/A,,Clear,290,2013-04-23 09:55:00
4:55 AM,13.1,8.4,82,30.43,10.0,West,4.6,-,N/A,,Clear,270,2013-04-23 10:55:00
5:55 AM,13.5,8.1,79,30.42,10.0,West,3.5,-,N/A,,Clear,280,2013-04-23 11:55:00
6:55 AM,13.1,6.8,76,30.43,10.0,West,3.5,-,N/A,,Clear,270,2013-04-23 12:55:00
7:55 AM,16.9,9.3,72,30.42,10.0,Calm,Calm,-,N/A,,Clear,0,2013-04-23 13:55:00
8:55 AM,21.9,13.1,69,30.40,10.0,West,3.5,-,N/A,,Clear,280,2013-04-23 14:55:00
9:55 AM,80.6,57.2,45,30.37,10.0,West,5.8,-,N/A,,Partly Cloudy,270,2013-04-23 15:55:00
10:55 AM,32.0,30.2,93,30.36,10.0,NNW,8.1,-,N/A,,Partly Cloudy,340,2013-04-23 16:55:00
10:58 AM,31.1,14.9,51,30.23,10.0,North,4.6,-,0.01,,Clear,10,2013-04-23 16:58:00
11:58 AM,33.1,12.4,42,30.34,10.0,North,4.6,-,0.01,,Clear,350,2013-04-23 17:58:00
12:58 PM,33.6,12.7,42,30.30,10.0,North,3.5,-,N/A,,Clear,360,2013-04-23 18:58:00
1:58 PM,32.2,13.6,46,30.29,10.0,Variable,1.2,-,0.01,,Clear,0,2013-04-23 19:58:00
2:40 PM,32.0,15.8,51,30.29,10.0,SSE,4.6,-,N/A,,Clear,150,2013-04-23 20:40:00
2:58 PM,33.4,17.1,51,30.29,10.0,South,6.9,-,N/A,,Clear,190,2013-04-23 20:58:00
3:58 PM,33.8,15.8,48,30.28,10.0,South,3.5,-,N/A,,Clear,190,2013-04-23 21:58:00
4:58 PM,34.0,18.7,54,30.27,10.0,South,4.6,-,N/A,,Clear,190,2013-04-23 22:58:00
5:58 PM,34.5,18.9,53,30.25,10.0,South,4.6,-,N/A,,Clear,190,2013-04-23 23:58:00
6:58 PM,34.3,21.0,58,30.25,10.0,South,6.9,-,N/A,,Clear,190,2013-04-24 00:58:00
7:58 PM,32.7,21.6,64,30.23,10.0,SSW,5.8,-,N/A,,Clear,210,2013-04-24 01:58:00
8:58 PM,29.5,21.7,73,30.22,10.0,SW,9.2,-,N/A,,Clear,220,2013-04-24 02:58:00
9:58 PM,31.1,21.0,66,30.20,10.0,SW,9.2,-,N/A,,Clear,220,2013-04-24 03:58:00
10:58 PM,28.8,20.5,71,30.18,10.0,SSW,3.5,-,N/A,,Clear,210,2013-04-24 04:58:00
11:58 PM,27.9,18.7,68,30.17,10.0,SW,5.8,-,N/A,,Clear,220,2013-04-24 05:58:00